sensor_id;sensor_type;location;lat;lon;timestamp;pressure;altitude;pressure_sealevel;temperature;humidity
77281;BME280;66339;47.262;17.144;2023-07-08T00:01:24;100727.06;;;24.23;49.26
77281;BME280;66339;47.262;17.144;2023-07-08T00:03:51;100724.69;;;24.21;49.31
77281;BME280;66339;47.262;17.144;2023-07-08T00:06:20;100716.84;;;24.20;49.20
77281;BME280;66339;47.262;17.144;2023-07-08T00:08:53;100726.88;;;24.19;49.26
77281;BME280;66339;47.262;17.144;2023-07-08T00:11:23;100719.56;;;24.20;49.22
77281;BME280;66339;47.262;17.144;2023-07-08T00:13:53;100726.06;;;24.19;49.29
77281;BME280;66339;47.262;17.144;2023-07-08T00:16:23;100727.66;;;24.20;49.25
77281;BME280;66339;47.262;17.144;2023-07-08T00:18:50;100724.47;;;24.18;49.11
77281;BME280;66339;47.262;17.144;2023-07-08T00:21:22;100721.78;;;24.18;49.10
77281;BME280;66339;47.262;17.144;2023-07-08T00:23:51;100721.25;;;24.16;49.15
77281;BME280;66339;47.262;17.144;2023-07-08T00:26:19;100721.25;;;24.16;48.91
77281;BME280;66339;47.262;17.144;2023-07-08T00:28:48;100715.84;;;24.16;49.22
77281;BME280;66339;47.262;17.144;2023-07-08T00:31:14;100719.66;;;24.15;48.96
77281;BME280;66339;47.262;17.144;2023-07-08T00:33:47;100716.16;;;24.14;48.83
77281;BME280;66339;47.262;17.144;2023-07-08T00:36:20;100723.47;;;24.14;48.71
77281;BME280;66339;47.262;17.144;2023-07-08T00:41:46;100721.84;;;24.13;48.83
77281;BME280;66339;47.262;17.144;2023-07-08T00:44:14;100728.34;;;24.12;48.34
77281;BME280;66339;47.262;17.144;2023-07-08T00:52:29;100729.25;;;24.07;49.05
77281;BME280;66339;47.262;17.144;2023-07-08T00:55:01;100731.16;;;24.07;49.11
77281;BME280;66339;47.262;17.144;2023-07-08T00:57:39;100724.38;;;24.09;48.84
77281;BME280;66339;47.262;17.144;2023-07-08T01:00:16;100726.25;;;24.09;48.56
77281;BME280;66339;47.262;17.144;2023-07-08T01:02:47;100718.44;;;24.07;48.82
77281;BME280;66339;47.262;17.144;2023-07-08T01:05:20;100723.03;;;24.07;48.74
77281;BME280;66339;47.262;17.144;2023-07-08T01:07:59;100723.03;;;24.07;48.89
77281;BME280;66339;47.262;17.144;2023-07-08T01:10:41;100725.75;;;24.07;48.96
77281;BME280;66339;47.262;17.144;2023-07-08T01:13:09;100719.25;;;24.08;48.44
77281;BME280;66339;47.262;17.144;2023-07-08T01:15:44;100725.22;;;24.05;48.48
77281;BME280;66339;47.262;17.144;2023-07-08T01:18:12;100729.03;;;24.04;48.85
77281;BME280;66339;47.262;17.144;2023-07-08T01:20:45;100725.53;;;24.03;48.95
77281;BME280;66339;47.262;17.144;2023-07-08T01:23:15;100723.94;;;24.02;48.86
77281;BME280;66339;47.262;17.144;2023-07-08T01:25:45;100716.62;;;24.03;48.68
77281;BME280;66339;47.262;17.144;2023-07-08T01:28:15;100715.63;;;23.98;48.87
77281;BME280;66339;47.262;17.144;2023-07-08T01:30:46;100728.53;;;24.02;49.09
77281;BME280;66339;47.262;17.144;2023-07-08T01:33:19;100725.03;;;24.01;48.82
77281;BME280;66339;47.262;17.144;2023-07-08T01:35:52;100720.72;;;24.00;48.79
77281;BME280;66339;47.262;17.144;2023-07-08T01:38:22;100726.44;;;23.98;49.12
77281;BME280;66339;47.262;17.144;2023-07-08T01:40:51;100724.22;;;24.00;49.02
77281;BME280;66339;47.262;17.144;2023-07-08T01:43:22;100730.72;;;23.99;49.34
77281;BME280;66339;47.262;17.144;2023-07-08T01:45:51;100736.66;;;24.02;49.16
77281;BME280;66339;47.262;17.144;2023-07-08T01:48:20;100728.03;;;23.99;49.07
77281;BME280;66339;47.262;17.144;2023-07-08T01:50:50;100728.53;;;24.02;48.95
77281;BME280;66339;47.262;17.144;2023-07-08T01:53:19;100729.13;;;23.98;49.19
77281;BME280;66339;47.262;17.144;2023-07-08T01:55:50;100714.03;;;23.97;49.13
77281;BME280;66339;47.262;17.144;2023-07-08T01:58:20;100719.13;;;23.99;49.38
77281;BME280;66339;47.262;17.144;2023-07-08T02:00:47;100721.03;;;23.98;49.28
77281;BME280;66339;47.262;17.144;2023-07-08T02:03:16;100712.91;;;23.98;49.26
77281;BME280;66339;47.262;17.144;2023-07-08T02:05:51;100724.00;;;23.97;49.43
77281;BME280;66339;47.262;17.144;2023-07-08T02:08:21;100717.81;;;23.96;49.31
77281;BME280;66339;47.262;17.144;2023-07-08T02:10:59;100715.41;;;23.95;49.39
77281;BME280;66339;47.262;17.144;2023-07-08T02:13:28;100716.22;;;23.95;49.33
77281;BME280;66339;47.262;17.144;2023-07-08T02:15:58;100718.91;;;23.95;49.25
77281;BME280;66339;47.262;17.144;2023-07-08T02:18:24;100725.41;;;23.94;49.10
77281;BME280;66339;47.262;17.144;2023-07-08T02:20:54;100720.00;;;23.94;49.06
77281;BME280;66339;47.262;17.144;2023-07-08T02:23:22;100723.00;;;23.93;49.17
77281;BME280;66339;47.262;17.144;2023-07-08T02:25:55;100722.78;;;23.89;49.33
77281;BME280;66339;47.262;17.144;2023-07-08T02:28:22;100724.91;;;23.92;49.07
77281;BME280;66339;47.262;17.144;2023-07-08T02:30:52;100727.38;;;23.89;49.18
77281;BME280;66339;47.262;17.144;2023-07-08T02:33:22;100724.69;;;23.89;49.29
77281;BME280;66339;47.262;17.144;2023-07-08T02:35:54;100738.50;;;23.87;49.32
77281;BME280;66339;47.262;17.144;2023-07-08T02:38:24;100725.00;;;23.87;49.38
77281;BME280;66339;47.262;17.144;2023-07-08T02:40:57;100728.81;;;23.86;49.40
77281;BME280;66339;47.262;17.144;2023-07-08T02:43:25;100735.28;;;23.85;49.43
77281;BME280;66339;47.262;17.144;2023-07-08T02:45:59;100739.59;;;23.86;49.33
77281;BME280;66339;47.262;17.144;2023-07-08T02:48:34;100737.97;;;23.85;49.34
77281;BME280;66339;47.262;17.144;2023-07-08T02:51:01;100747.19;;;23.84;49.31
77281;BME280;66339;47.262;17.144;2023-07-08T02:53:32;100751.00;;;23.83;49.40
77281;BME280;66339;47.262;17.144;2023-07-08T02:56:02;100755.28;;;23.84;49.21
77281;BME280;66339;47.262;17.144;2023-07-08T02:58:35;100756.41;;;23.83;49.15
77281;BME280;66339;47.262;17.144;2023-07-08T03:01:01;100760.19;;;23.82;49.09
77281;BME280;66339;47.262;17.144;2023-07-08T03:03:37;100762.37;;;23.80;49.11
77281;BME280;66339;47.262;17.144;2023-07-08T03:06:08;100755.66;;;23.77;49.13
77281;BME280;66339;47.262;17.144;2023-07-08T03:08:44;100760.25;;;23.77;49.03
77281;BME280;66339;47.262;17.144;2023-07-08T03:11:11;100765.16;;;23.75;49.03
77281;BME280;66339;47.262;17.144;2023-07-08T03:13:38;100759.75;;;23.75;48.85
77281;BME280;66339;47.262;17.144;2023-07-08T03:16:08;100768.97;;;23.74;48.86
77281;BME280;66339;47.262;17.144;2023-07-08T03:18:39;100761.94;;;23.73;48.85
77281;BME280;66339;47.262;17.144;2023-07-08T03:21:07;100760.34;;;23.72;48.62
77281;BME280;66339;47.262;17.144;2023-07-08T03:23:40;100763.34;;;23.70;48.56
77281;BME280;66339;47.262;17.144;2023-07-08T03:26:13;100763.63;;;23.69;48.45
77281;BME280;66339;47.262;17.144;2023-07-08T03:28:40;100761.53;;;23.66;48.39
77281;BME280;66339;47.262;17.144;2023-07-08T03:31:08;100769.09;;;23.64;48.44
77281;BME280;66339;47.262;17.144;2023-07-08T03:33:39;100770.19;;;23.63;48.27
77281;BME280;66339;47.262;17.144;2023-07-08T03:36:11;100776.16;;;23.60;48.41
77281;BME280;66339;47.262;17.144;2023-07-08T03:38:44;100784.03;;;23.56;48.54
77281;BME280;66339;47.262;17.144;2023-07-08T03:41:13;100779.44;;;23.57;48.35
77281;BME280;66339;47.262;17.144;2023-07-08T03:43:42;100783.25;;;23.56;48.39
77281;BME280;66339;47.262;17.144;2023-07-08T03:46:16;100784.84;;;23.57;48.53
77281;BME280;66339;47.262;17.144;2023-07-08T03:48:44;100784.94;;;23.51;48.54
77281;BME280;66339;47.262;17.144;2023-07-08T03:51:33;100779.22;;;23.53;48.33
77281;BME280;66339;47.262;17.144;2023-07-08T03:54:02;100774.91;;;23.52;48.29
77281;BME280;66339;47.262;17.144;2023-07-08T03:56:29;100771.19;;;23.48;48.43
77281;BME280;66339;47.262;17.144;2023-07-08T03:58:56;100768.81;;;23.46;48.63
77281;BME280;66339;47.262;17.144;2023-07-08T04:01:27;100766.81;;;23.52;48.18
77281;BME280;66339;47.262;17.144;2023-07-08T04:04:00;100775.50;;;23.49;48.23
77281;BME280;66339;47.262;17.144;2023-07-08T04:06:30;100773.38;;;23.46;48.38
77281;BME280;66339;47.262;17.144;2023-07-08T04:08:57;100772.56;;;23.45;48.44
77281;BME280;66339;47.262;17.144;2023-07-08T04:11:27;100768.81;;;23.46;48.40
77281;BME280;66339;47.262;17.144;2023-07-08T04:13:54;100771.78;;;23.45;48.67
77281;BME280;66339;47.262;17.144;2023-07-08T04:16:22;100768.81;;;23.46;48.51
77281;BME280;66339;47.262;17.144;2023-07-08T04:18:53;100766.91;;;23.47;48.38
77281;BME280;66339;47.262;17.144;2023-07-08T04:21:27;100766.09;;;23.46;48.41
77281;BME280;66339;47.262;17.144;2023-07-08T04:23:54;100763.41;;;23.46;48.40
77281;BME280;66339;47.262;17.144;2023-07-08T04:26:21;100764.78;;;23.44;48.47
77281;BME280;66339;47.262;17.144;2023-07-08T04:28:50;100775.56;;;23.44;48.49
77281;BME280;66339;47.262;17.144;2023-07-08T04:31:20;100775.00;;;23.47;48.51
77281;BME280;66339;47.262;17.144;2023-07-08T04:33:51;100766.69;;;23.43;48.45
77281;BME280;66339;47.262;17.144;2023-07-08T04:36:24;100772.34;;;23.42;48.68
77281;BME280;66339;47.262;17.144;2023-07-08T04:38:56;100766.16;;;23.41;48.62
77281;BME280;66339;47.262;17.144;2023-07-08T04:41:26;100772.34;;;23.42;48.71
77281;BME280;66339;47.262;17.144;2023-07-08T04:44:02;100776.16;;;23.41;48.77
77281;BME280;66339;47.262;17.144;2023-07-08T04:46:35;100765.34;;;23.41;48.89
77281;BME280;66339;47.262;17.144;2023-07-08T04:49:07;100764.56;;;23.40;49.06
77281;BME280;66339;47.262;17.144;2023-07-08T04:51:40;100769.37;;;23.43;48.93
77281;BME280;66339;47.262;17.144;2023-07-08T04:54:17;100765.66;;;23.39;48.96
77281;BME280;66339;47.262;17.144;2023-07-08T04:56:49;100769.37;;;23.43;49.00
77281;BME280;66339;47.262;17.144;2023-07-08T04:59:23;100757.78;;;23.43;49.02
77281;BME280;66339;47.262;17.144;2023-07-08T05:01:50;100763.97;;;23.43;49.07
77281;BME280;66339;47.262;17.144;2023-07-08T05:04:23;100762.37;;;23.42;49.20
77281;BME280;66339;47.262;17.144;2023-07-08T05:06:49;100771.56;;;23.41;49.16
77281;BME280;66339;47.262;17.144;2023-07-08T05:09:19;100780.19;;;23.43;49.12
77281;BME280;66339;47.262;17.144;2023-07-08T05:11:48;100775.56;;;23.44;48.96
77281;BME280;66339;47.262;17.144;2023-07-08T05:14:14;100769.06;;;23.45;48.93
77281;BME280;66339;47.262;17.144;2023-07-08T05:16:44;100769.37;;;23.43;49.00
77281;BME280;66339;47.262;17.144;2023-07-08T05:19:18;100767.19;;;23.45;49.01
77281;BME280;66339;47.262;17.144;2023-07-08T05:21:49;100767.25;;;23.40;49.29
77281;BME280;66339;47.262;17.144;2023-07-08T05:24:22;100761.78;;;23.45;48.85
77281;BME280;66339;47.262;17.144;2023-07-08T05:26:58;100760.97;;;23.45;48.42
77281;BME280;66339;47.262;17.144;2023-07-08T05:29:28;100764.78;;;23.44;48.98
77281;BME280;66339;47.262;17.144;2023-07-08T05:32:04;100770.19;;;23.44;48.91
77281;BME280;66339;47.262;17.144;2023-07-08T05:34:36;100772.06;;;23.43;49.00
77281;BME280;66339;47.262;17.144;2023-07-08T05:37:06;100767.78;;;23.42;49.18
77281;BME280;66339;47.262;17.144;2023-07-08T05:39:34;100769.37;;;23.43;49.20
77281;BME280;66339;47.262;17.144;2023-07-08T05:42:09;100769.66;;;23.42;49.57
77281;BME280;66339;47.262;17.144;2023-07-08T05:44:37;100762.87;;;23.44;49.41
77281;BME280;66339;47.262;17.144;2023-07-08T05:47:04;100761.34;;;23.38;48.47
77281;BME280;66339;47.262;17.144;2023-07-08T05:49:31;100770.91;;;23.31;48.56
77281;BME280;66339;47.262;17.144;2023-07-08T05:51:59;100771.09;;;23.34;49.16
77281;BME280;66339;47.262;17.144;2023-07-08T05:57:05;100761.34;;;23.38;49.29
77281;BME280;66339;47.262;17.144;2023-07-08T05:59:33;100765.94;;;23.38;49.49
77281;BME280;66339;47.262;17.144;2023-07-08T06:02:02;100761.06;;;23.40;49.49
77281;BME280;66339;47.262;17.144;2023-07-08T06:04:30;100766.16;;;23.41;49.79
77281;BME280;66339;47.262;17.144;2023-07-08T06:07:01;100761.78;;;23.45;49.44
77281;BME280;66339;47.262;17.144;2023-07-08T06:09:28;100758.00;;;23.46;49.50
77281;BME280;66339;47.262;17.144;2023-07-08T06:12:04;100754.19;;;23.47;49.74
77281;BME280;66339;47.262;17.144;2023-07-08T06:14:31;100745.00;;;23.48;49.80
77281;BME280;66339;47.262;17.144;2023-07-08T06:16:58;100748.22;;;23.50;49.63
77281;BME280;66339;47.262;17.144;2023-07-08T06:19:25;100756.81;;;23.52;49.85
77281;BME280;66339;47.262;17.144;2023-07-08T06:21:52;100761.12;;;23.53;50.21
77281;BME280;66339;47.262;17.144;2023-07-08T06:24:43;100769.75;;;23.56;50.14
77281;BME280;66339;47.262;17.144;2023-07-08T06:27:13;100765.94;;;23.57;50.44
77281;BME280;66339;47.262;17.144;2023-07-08T06:29:44;100764.25;;;23.61;50.78
77281;BME280;66339;47.262;17.144;2023-07-08T06:32:15;100758.84;;;23.61;51.00
77281;BME280;66339;47.262;17.144;2023-07-08T06:34:45;100759.06;;;23.64;50.89
77281;BME280;66339;47.262;17.144;2023-07-08T06:37:17;100761.53;;;23.66;50.44
77281;BME280;66339;47.262;17.144;2023-07-08T06:39:44;100767.44;;;23.68;50.59
77281;BME280;66339;47.262;17.144;2023-07-08T06:42:14;100759.31;;;23.68;50.60
77281;BME280;66339;47.262;17.144;2023-07-08T06:44:45;100754.72;;;23.68;50.60
77281;BME280;66339;47.262;17.144;2023-07-08T06:47:15;100755.53;;;23.69;50.73
77281;BME280;66339;47.262;17.144;2023-07-08T06:49:48;100757.94;;;23.70;50.93
77281;BME280;66339;47.262;17.144;2023-07-08T06:52:15;100751.75;;;23.70;51.00
77281;BME280;66339;47.262;17.144;2023-07-08T06:54:46;100744.94;;;23.72;51.09
77281;BME280;66339;47.262;17.144;2023-07-08T06:57:20;100733.84;;;23.74;51.13
77281;BME280;66339;47.262;17.144;2023-07-08T06:59:50;100741.97;;;23.74;50.96
77281;BME280;66339;47.262;17.144;2023-07-08T07:02:20;100745.47;;;23.74;51.22
77281;BME280;66339;47.262;17.144;2023-07-08T07:04:53;100740.84;;;23.75;51.24
77281;BME280;66339;47.262;17.144;2023-07-08T07:07:20;100741.34;;;23.77;51.40
77281;BME280;66339;47.262;17.144;2023-07-08T07:09:48;100740.56;;;23.76;51.38
77281;BME280;66339;47.262;17.144;2023-07-08T07:12:18;100735.94;;;23.77;51.18
77281;BME280;66339;47.262;17.144;2023-07-08T07:14:47;100742.16;;;23.77;51.71
77281;BME280;66339;47.262;17.144;2023-07-08T07:17:21;100740.28;;;23.78;51.67
77281;BME280;66339;47.262;17.144;2023-07-08T07:19:51;100739.66;;;23.81;51.53
77281;BME280;66339;47.262;17.144;2023-07-08T07:22:25;100740.19;;;23.83;51.70
77281;BME280;66339;47.262;17.144;2023-07-08T07:24:54;100741.78;;;23.84;51.59
77281;BME280;66339;47.262;17.144;2023-07-08T07:27:22;100751.00;;;23.83;51.54
77281;BME280;66339;47.262;17.144;2023-07-08T07:29:49;100749.63;;;23.86;51.72
77281;BME280;66339;47.262;17.144;2023-07-08T07:32:21;100750.41;;;23.86;51.67
77281;BME280;66339;47.262;17.144;2023-07-08T07:34:49;100745.81;;;23.87;51.71
77281;BME280;66339;47.262;17.144;2023-07-08T07:37:16;100745.00;;;23.86;51.38
77281;BME280;66339;47.262;17.144;2023-07-08T07:39:44;100743.91;;;23.87;51.56
77281;BME280;66339;47.262;17.144;2023-07-08T07:42:15;100752.00;;;23.87;51.70
77281;BME280;66339;47.262;17.144;2023-07-08T07:44:46;100752.00;;;23.87;51.87
77281;BME280;66339;47.262;17.144;2023-07-08T07:47:14;100747.41;;;23.88;51.80
77281;BME280;66339;47.262;17.144;2023-07-08T07:49:41;100755.19;;;23.89;52.00
77281;BME280;66339;47.262;17.144;2023-07-08T07:52:11;100758.72;;;23.90;51.77
77281;BME280;66339;47.262;17.144;2023-07-08T07:54:38;100752.50;;;23.89;52.20
77281;BME280;66339;47.262;17.144;2023-07-08T07:57:05;100753.03;;;23.91;52.08
77281;BME280;66339;47.262;17.144;2023-07-08T07:59:31;100753.03;;;23.91;52.08
77281;BME280;66339;47.262;17.144;2023-07-08T08:01:58;100750.84;;;23.93;51.63
77281;BME280;66339;47.262;17.144;2023-07-08T08:04:28;100743.81;;;23.92;52.05
77281;BME280;66339;47.262;17.144;2023-07-08T08:06:55;100747.03;;;23.94;52.21
77281;BME280;66339;47.262;17.144;2023-07-08T08:09:21;100737.81;;;23.95;51.95
77281;BME280;66339;47.262;17.144;2023-07-08T08:11:51;100740.84;;;23.94;51.67
77281;BME280;66339;47.262;17.144;2023-07-08T08:14:18;100733.53;;;23.94;52.30
77281;BME280;66339;47.262;17.144;2023-07-08T08:16:45;100732.41;;;23.95;51.97
77281;BME280;66339;47.262;17.144;2023-07-08T08:19:11;100735.66;;;23.97;51.59
77281;BME280;66339;47.262;17.144;2023-07-08T08:21:41;100732.41;;;23.95;51.89
77281;BME280;66339;47.262;17.144;2023-07-08T08:24:12;100733.75;;;23.98;52.04
77281;BME280;66339;47.262;17.144;2023-07-08T08:26:38;100730.25;;;23.97;52.00
77281;BME280;66339;47.262;17.144;2023-07-08T08:29:08;100735.66;;;23.97;52.06
77281;BME280;66339;47.262;17.144;2023-07-08T08:31:39;100731.84;;;23.98;51.65
77281;BME280;66339;47.262;17.144;2023-07-08T08:34:06;100728.03;;;23.99;52.04
77281;BME280;66339;47.262;17.144;2023-07-08T08:36:41;100731.84;;;23.98;52.16
77281;BME280;66339;47.262;17.144;2023-07-08T08:39:12;100735.34;;;23.99;52.46
77281;BME280;66339;47.262;17.144;2023-07-08T08:41:40;100724.22;;;24.00;51.90
77281;BME280;66339;47.262;17.144;2023-07-08T08:44:17;100735.03;;;24.00;52.20
77281;BME280;66339;47.262;17.144;2023-07-08T08:51:54;100717.75;;;24.02;52.19
77281;BME280;66339;47.262;17.144;2023-07-08T08:54:25;100720.44;;;24.02;51.80
77281;BME280;66339;47.262;17.144;2023-07-08T08:59:29;100723.62;;;24.04;51.77
77281;BME280;66339;47.262;17.144;2023-07-08T09:02:07;100719.81;;;24.05;51.77
77281;BME280;66339;47.262;17.144;2023-07-08T09:04:41;100721.44;;;24.06;51.69
77281;BME280;66339;47.262;17.144;2023-07-08T09:07:18;100718.97;;;24.09;51.75
77281;BME280;66339;47.262;17.144;2023-07-08T09:10:15;100717.84;;;24.10;51.75
77281;BME280;66339;47.262;17.144;2023-07-08T09:12:40;100712.13;;;24.12;51.96
77281;BME280;66339;47.262;17.144;2023-07-08T09:15:14;100707.25;;;24.14;51.89
77281;BME280;66339;47.262;17.144;2023-07-08T09:17:51;100708.84;;;24.15;51.77
77281;BME280;66339;47.262;17.144;2023-07-08T09:20:27;100700.44;;;24.16;51.55
77281;BME280;66339;47.262;17.144;2023-07-08T09:26:21;100696.66;;;24.17;51.88
77281;BME280;66339;47.262;17.144;2023-07-08T09:28:38;100685.84;;;24.17;51.41
77281;BME280;66339;47.262;17.144;2023-07-08T09:31:16;100690.94;;;24.19;51.19
77281;BME280;66339;47.262;17.144;2023-07-08T09:33:50;100693.63;;;24.19;51.16
77281;BME280;66339;47.262;17.144;2023-07-08T09:36:27;100697.94;;;24.20;50.78
77281;BME280;66339;47.262;17.144;2023-07-08T09:38:54;100691.47;;;24.21;49.99
77281;BME280;66339;47.262;17.144;2023-07-08T09:41:34;100694.66;;;24.23;50.21
77281;BME280;66339;47.262;17.144;2023-07-08T09:44:24;100687.06;;;24.25;50.42
77281;BME280;66339;47.262;17.144;2023-07-08T09:46:49;100703.75;;;24.27;50.12
77281;BME280;66339;47.262;17.144;2023-07-08T09:49:18;100703.44;;;24.29;49.44
77281;BME280;66339;47.262;17.144;2023-07-08T09:51:51;100698.88;;;24.29;49.08
77281;BME280;66339;47.262;17.144;2023-07-08T09:54:22;100695.84;;;24.31;49.21
77281;BME280;66339;47.262;17.144;2023-07-08T09:59:28;100695.84;;;24.31;49.06
77281;BME280;66339;47.262;17.144;2023-07-08T10:02:00;100696.66;;;24.31;49.14
77281;BME280;66339;47.262;17.144;2023-07-08T10:04:28;100692.84;;;24.32;49.69
77281;BME280;66339;47.262;17.144;2023-07-08T10:06:55;100685.25;;;24.34;50.45
77281;BME280;66339;47.262;17.144;2023-07-08T10:09:25;100690.66;;;24.34;50.87
77281;BME280;66339;47.262;17.144;2023-07-08T10:11:59;100678.44;;;24.37;51.55
77281;BME280;66339;47.262;17.144;2023-07-08T10:14:32;100680.03;;;24.38;52.14
77281;BME280;66339;47.262;17.144;2023-07-08T10:17:04;100678.66;;;24.40;52.27
77281;BME280;66339;47.262;17.144;2023-07-08T10:19:32;100676.47;;;24.42;53.02
77281;BME280;66339;47.262;17.144;2023-07-08T10:27:10;100686.69;;;24.45;53.32
77281;BME280;66339;47.262;17.144;2023-07-08T10:29:53;100677.47;;;24.46;52.80
77281;BME280;66339;47.262;17.144;2023-07-08T10:32:33;100673.66;;;24.47;51.96
77281;BME280;66339;47.262;17.144;2023-07-08T10:35:12;100673.66;;;24.47;51.69
77281;BME280;66339;47.262;17.144;2023-07-08T10:40:19;100682.28;;;24.49;52.09
77281;BME280;66339;47.262;17.144;2023-07-08T10:45:43;100675.75;;;24.51;52.38
77281;BME280;66339;47.262;17.144;2023-07-08T10:56:15;100663.84;;;24.52;53.10
77281;BME280;66339;47.262;17.144;2023-07-08T10:58:52;100646.81;;;24.51;53.51
77281;BME280;66339;47.262;17.144;2023-07-08T11:01:34;100654.66;;;24.53;53.82
77281;BME280;66339;47.262;17.144;2023-07-08T11:04:21;100660.06;;;24.53;54.21
77281;BME280;66339;47.262;17.144;2023-07-08T11:06:58;100671.34;;;24.55;54.41
77281;BME280;66339;47.262;17.144;2023-07-08T11:09:35;100664.03;;;24.55;54.51
77281;BME280;66339;47.262;17.144;2023-07-08T11:14:46;100653.75;;;24.57;54.57
77281;BME280;66339;47.262;17.144;2023-07-08T11:17:58;100640.22;;;24.57;54.51
77281;BME280;66339;47.262;17.144;2023-07-08T11:25:46;100643.72;;;24.58;54.42
77281;BME280;66339;47.262;17.144;2023-07-08T11:28:19;100641.81;;;24.58;54.39
77281;BME280;66339;47.262;17.144;2023-07-08T11:30:49;100639.91;;;24.59;54.42
77281;BME280;66339;47.262;17.144;2023-07-08T11:33:21;100646.41;;;24.58;54.44
77281;BME280;66339;47.262;17.144;2023-07-08T11:35:51;100645.31;;;24.59;54.42
77281;BME280;66339;47.262;17.144;2023-07-08T11:38:22;100646.41;;;24.58;54.44
77281;BME280;66339;47.262;17.144;2023-07-08T11:41:02;100637.19;;;24.59;54.34
77281;BME280;66339;47.262;17.144;2023-07-08T11:43:34;100635.59;;;24.58;54.38
77281;BME280;66339;47.262;17.144;2023-07-08T11:46:11;100635.28;;;24.59;54.34
77281;BME280;66339;47.262;17.144;2023-07-08T11:48:46;100627.19;;;24.59;54.39
77281;BME280;66339;47.262;17.144;2023-07-08T11:51:18;100629.09;;;24.59;54.40
77281;BME280;66339;47.262;17.144;2023-07-08T11:53:59;100620.97;;;24.59;54.41
77281;BME280;66339;47.262;17.144;2023-07-08T11:56:29;100635.28;;;24.59;54.47
77281;BME280;66339;47.262;17.144;2023-07-08T11:59:18;100627.97;;;24.60;54.49
77281;BME280;66339;47.262;17.144;2023-07-08T12:01:48;100623.37;;;24.60;54.50
77281;BME280;66339;47.262;17.144;2023-07-08T12:04:31;100611.75;;;24.60;54.51
77281;BME280;66339;47.262;17.144;2023-07-08T12:07:19;100620.37;;;24.62;54.48
77281;BME280;66339;47.262;17.144;2023-07-08T12:10:33;100624.19;;;24.61;54.55
77281;BME280;66339;47.262;17.144;2023-07-08T12:12:35;100614.16;;;24.61;54.54
77281;BME280;66339;47.262;17.144;2023-07-08T12:15:10;100601.75;;;24.60;54.53
77281;BME280;66339;47.262;17.144;2023-07-08T12:17:43;100602.56;;;24.61;54.49
77281;BME280;66339;47.262;17.144;2023-07-08T12:20:26;100597.16;;;24.61;54.42
77281;BME280;66339;47.262;17.144;2023-07-08T12:22:56;100592.53;;;24.61;54.41
77281;BME280;66339;47.262;17.144;2023-07-08T12:25:34;100580.91;;;24.61;54.38
77281;BME280;66339;47.262;17.144;2023-07-08T12:28:05;100587.13;;;24.61;54.40
77281;BME280;66339;47.262;17.144;2023-07-08T12:30:43;100609.56;;;24.62;54.40
77281;BME280;66339;47.262;17.144;2023-07-08T12:33:14;100604.16;;;24.62;54.38
77281;BME280;66339;47.262;17.144;2023-07-08T12:35:46;100601.44;;;24.62;54.37
77281;BME280;66339;47.262;17.144;2023-07-08T12:38:25;100609.56;;;24.62;54.44
77281;BME280;66339;47.262;17.144;2023-07-08T12:41:14;100600.31;;;24.63;54.60
77281;BME280;66339;47.262;17.144;2023-07-08T12:43:42;100585.69;;;24.64;54.74
77281;BME280;66339;47.262;17.144;2023-07-08T12:46:16;100590.31;;;24.63;54.66
77281;BME280;66339;47.262;17.144;2023-07-08T12:48:46;100601.12;;;24.63;54.74
77281;BME280;66339;47.262;17.144;2023-07-08T12:51:18;100600.31;;;24.63;54.66
77281;BME280;66339;47.262;17.144;2023-07-08T12:53:49;100601.91;;;24.64;54.66
77281;BME280;66339;47.262;17.144;2023-07-08T12:56:23;100588.41;;;24.64;54.74
77281;BME280;66339;47.262;17.144;2023-07-08T12:58:54;100582.69;;;24.65;54.77
77281;BME280;66339;47.262;17.144;2023-07-08T13:01:30;100579.19;;;24.65;54.79
77281;BME280;66339;47.262;17.144;2023-07-08T13:04:09;100581.09;;;24.64;54.87
77281;BME280;66339;47.262;17.144;2023-07-08T13:06:39;100583.50;;;24.66;54.83
77281;BME280;66339;47.262;17.144;2023-07-08T13:11:47;100579.69;;;24.67;54.80
77281;BME280;66339;47.262;17.144;2023-07-08T13:14:21;100586.69;;;24.68;54.83
77281;BME280;66339;47.262;17.144;2023-07-08T13:16:49;100584.28;;;24.66;54.89
77281;BME280;66339;47.262;17.144;2023-07-08T13:21:57;100588.31;;;24.69;54.89
77281;BME280;66339;47.262;17.144;2023-07-08T13:24:29;100586.69;;;24.68;54.91
77281;BME280;66339;47.262;17.144;2023-07-08T13:26:56;100586.69;;;24.68;54.93
77281;BME280;66339;47.262;17.144;2023-07-08T13:32:12;100582.91;;;24.69;55.00
77281;BME280;66339;47.262;17.144;2023-07-08T13:34:43;100574.28;;;24.67;55.07
77281;BME280;66339;47.262;17.144;2023-07-08T13:37:11;100575.06;;;24.67;55.03
77281;BME280;66339;47.262;17.144;2023-07-08T13:39:48;100580.19;;;24.69;55.03
77281;BME280;66339;47.262;17.144;2023-07-08T13:42:18;100582.91;;;24.69;55.08
77281;BME280;66339;47.262;17.144;2023-07-08T13:44:50;100588.31;;;24.69;55.11
77281;BME280;66339;47.262;17.144;2023-07-08T13:47:26;100591.00;;;24.69;55.12
77281;BME280;66339;47.262;17.144;2023-07-08T13:50:04;100581.78;;;24.70;55.05
77281;BME280;66339;47.262;17.144;2023-07-08T13:52:33;100591.00;;;24.69;55.16
77281;BME280;66339;47.262;17.144;2023-07-08T13:55:01;100579.09;;;24.70;55.18
77281;BME280;66339;47.262;17.144;2023-07-08T13:57:36;100580.66;;;24.71;55.15
77281;BME280;66339;47.262;17.144;2023-07-08T14:00:04;100582.28;;;24.72;55.14
77281;BME280;66339;47.262;17.144;2023-07-08T14:02:37;100580.66;;;24.71;55.23